createdAt,value
2019-03-02T00:00:34.948Z,95.00
2019-03-02T00:03:01.946Z,95.00
2019-03-02T00:05:30.392Z,95.20
2019-03-02T00:07:58.841Z,95.20
2019-03-02T00:10:27.280Z,95.30
2019-03-02T00:12:55.747Z,95.00
2019-03-02T00:15:26.881Z,95.00
2019-03-02T00:17:55.096Z,95.10
2019-03-02T00:20:23.993Z,95.10
2019-03-02T00:22:52.813Z,95.10
2019-03-02T00:25:21.316Z,95.10
2019-03-02T00:27:49.782Z,95.10
2019-03-02T00:30:21.145Z,95.10
2019-03-02T00:32:48.399Z,95.10
2019-03-02T00:35:16.899Z,95.10
2019-03-02T00:37:45.343Z,95.00
2019-03-02T00:40:14.197Z,95.00
2019-03-02T00:42:42.638Z,94.70
2019-03-02T00:45:14.085Z,94.50
2019-03-02T00:47:43.756Z,94.50
2019-03-02T00:50:12.624Z,94.50
2019-03-02T00:52:42.142Z,94.30
2019-03-02T00:55:11.419Z,94.20
2019-03-02T00:57:39.875Z,94.20
2019-03-02T01:00:11.610Z,94.20
2019-03-02T01:02:41.619Z,94.20
2019-03-02T01:05:10.910Z,94.20
2019-03-02T01:07:39.422Z,94.10
2019-03-02T01:10:11.463Z,94.00
2019-03-02T01:12:40.432Z,94.00
2019-03-02T01:15:12.633Z,94.00
2019-03-02T01:17:41.173Z,94.00
2019-03-02T01:20:12.322Z,94.00
2019-03-02T01:22:40.948Z,93.90
2019-03-02T01:25:13.353Z,93.80
2019-03-02T01:27:42.932Z,93.60
2019-03-02T01:30:14.544Z,93.70
2019-03-02T01:32:43.077Z,93.50
2019-03-02T01:35:11.527Z,93.60
2019-03-02T01:37:43.814Z,93.40
2019-03-02T01:40:14.852Z,93.30
2019-03-02T01:42:43.310Z,93.10
2019-03-02T01:45:14.541Z,92.90
2019-03-02T01:47:43.001Z,93.00
2019-03-02T01:50:14.344Z,92.90
2019-03-02T01:52:43.118Z,92.80
2019-03-02T01:55:12.805Z,92.70
2019-03-02T01:57:41.258Z,92.60
2019-03-02T02:00:15.368Z,92.60
2019-03-02T02:02:43.821Z,92.60
2019-03-02T02:05:12.338Z,92.70
2019-03-02T02:07:41.159Z,92.80
2019-03-02T02:10:12.383Z,92.80
2019-03-02T02:12:40.827Z,92.80
2019-03-02T02:15:12.450Z,92.80
2019-03-02T02:17:41.250Z,92.80
2019-03-02T02:20:14.553Z,92.80
2019-03-02T02:22:42.731Z,92.90
2019-03-02T02:25:13.636Z,92.90
2019-03-02T02:27:42.108Z,92.90
2019-03-02T02:30:27.674Z,92.90
2019-03-02T02:33:03.793Z,92.70
2019-03-02T02:35:27.516Z,92.60
2019-03-02T02:37:55.955Z,92.60
2019-03-02T02:40:24.457Z,92.60
2019-03-02T02:42:52.939Z,92.60
2019-03-02T02:45:23.478Z,92.60
2019-03-02T02:47:54.382Z,92.60
2019-03-02T02:50:29.101Z,92.60
2019-03-02T02:52:52.851Z,92.50
2019-03-02T02:55:21.296Z,92.30
2019-03-02T02:57:49.817Z,92.10
2019-03-02T03:00:26.256Z,91.80
2019-03-02T03:02:55.036Z,91.50
2019-03-02T03:05:23.497Z,90.90
2019-03-02T03:07:53.804Z,91.00
2019-03-02T03:10:27.821Z,90.90
2019-03-02T03:12:56.734Z,90.90
2019-03-02T03:15:36.017Z,90.70
2019-03-02T03:17:58.356Z,90.50
2019-03-02T03:20:27.199Z,90.10
2019-03-02T03:22:55.664Z,89.90
2019-03-02T03:25:24.131Z,89.80
2019-03-02T03:27:53.605Z,89.70
2019-03-02T03:30:33.790Z,89.90
2019-03-02T03:32:55.886Z,90.00
2019-03-02T03:35:23.088Z,90.00
2019-03-02T03:37:52.624Z,90.00
2019-03-02T03:40:25.473Z,90.00
2019-03-02T03:42:51.794Z,90.10
2019-03-02T03:45:20.280Z,90.20
2019-03-02T03:47:48.816Z,90.10
2019-03-02T03:50:17.914Z,90.20
2019-03-02T03:52:49.075Z,90.40
2019-03-02T03:55:23.770Z,90.40
2019-03-02T03:57:46.829Z,90.40
2019-03-02T04:00:16.820Z,90.50
2019-03-02T04:02:45.264Z,90.60
2019-03-02T04:05:13.702Z,90.50
2019-03-02T04:07:48.472Z,90.70
2019-03-02T04:10:24.605Z,90.70
2019-03-02T04:12:46.774Z,90.80
2019-03-02T04:15:15.229Z,90.80
2019-03-02T04:17:43.678Z,91.00
2019-03-02T04:20:18.173Z,91.10
2019-03-02T04:22:46.899Z,91.10
2019-03-02T04:25:18.029Z,91.20
2019-03-02T04:27:53.631Z,91.30
2019-03-02T04:30:15.697Z,91.50
2019-03-02T04:32:44.145Z,91.50
2019-03-02T04:35:12.611Z,91.60
2019-03-02T04:37:41.055Z,91.70
2019-03-02T04:40:11.098Z,91.80
2019-03-02T04:42:39.978Z,91.80
2019-03-02T04:45:10.573Z,91.80
2019-03-02T04:47:39.022Z,91.80
2019-03-02T04:50:08.907Z,91.80
2019-03-02T04:52:37.352Z,92.00
2019-03-02T04:55:13.444Z,92.00
2019-03-02T04:57:43.057Z,92.10
2019-03-02T05:00:16.219Z,92.10
2019-03-02T05:02:44.677Z,92.00
2019-03-02T05:05:13.206Z,92.00
2019-03-02T05:07:41.655Z,92.10
2019-03-02T05:10:11.547Z,92.20
2019-03-02T05:12:40.012Z,92.30
2019-03-02T05:15:11.836Z,92.30
2019-03-02T05:17:43.036Z,92.50
2019-03-02T05:20:11.827Z,92.50
2019-03-02T05:22:40.527Z,92.50
2019-03-02T05:25:11.028Z,92.60
2019-03-02T05:27:39.497Z,92.50
2019-03-02T05:30:13.765Z,92.80
2019-03-02T05:32:42.547Z,92.70
2019-03-02T05:35:11.862Z,92.80
2019-03-02T05:37:41.327Z,92.90
2019-03-02T05:40:11.491Z,93.20
2019-03-02T05:42:39.951Z,93.30
2019-03-02T05:45:11.220Z,93.30
2019-03-02T05:47:40.090Z,93.40
2019-03-02T05:50:10.870Z,93.40
2019-03-02T05:52:39.316Z,93.40
2019-03-02T05:55:08.718Z,93.40
2019-03-02T05:57:40.487Z,93.50
2019-03-02T06:00:13.962Z,93.50
2019-03-02T06:02:42.404Z,93.50
2019-03-02T06:05:10.855Z,93.50
2019-03-02T06:07:39.394Z,93.40
2019-03-02T06:10:10.432Z,93.40
2019-03-02T06:12:38.888Z,93.40
2019-03-02T06:15:10.657Z,93.40
2019-03-02T06:17:39.097Z,93.40
2019-03-02T06:20:09.302Z,93.40
2019-03-02T06:22:37.765Z,93.40
2019-03-02T06:25:08.916Z,93.40
2019-03-02T06:27:37.398Z,93.40
2019-03-02T06:30:09.377Z,93.40
2019-03-02T06:32:37.972Z,93.40
2019-03-02T06:35:09.075Z,93.40
2019-03-02T06:37:37.640Z,93.30
2019-03-02T06:40:09.271Z,93.30
2019-03-02T06:42:37.786Z,93.30
2019-03-02T06:45:13.743Z,93.30
2019-03-02T06:47:42.232Z,93.30
2019-03-02T06:50:13.367Z,93.20
2019-03-02T06:52:41.835Z,93.20
2019-03-02T06:55:12.299Z,93.20
2019-03-02T06:57:40.792Z,93.10
2019-03-02T07:00:13.960Z,93.10
2019-03-02T07:02:42.299Z,93.00
2019-03-02T07:05:10.890Z,93.00
2019-03-02T07:07:39.715Z,93.00
2019-03-02T07:10:17.708Z,92.90
2019-03-02T07:12:47.608Z,92.80
2019-03-02T07:15:17.107Z,92.70
2019-03-02T07:17:56.175Z,92.70
2019-03-02T07:20:32.258Z,92.60
2019-03-02T07:23:00.701Z,92.50
2019-03-02T07:25:29.155Z,92.50
2019-03-02T07:27:57.630Z,92.40
2019-03-02T07:30:26.068Z,92.30
2019-03-02T07:32:54.894Z,92.00
2019-03-02T07:35:23.726Z,92.10
2019-03-02T07:37:52.200Z,92.00
2019-03-02T07:40:20.668Z,92.00
2019-03-02T07:42:49.123Z,91.90
2019-03-02T07:45:20.469Z,91.90
2019-03-02T07:51:17.194Z,91.50
2019-03-02T07:53:45.610Z,91.30
2019-03-02T07:56:14.378Z,91.00
2019-03-02T07:58:42.855Z,90.90
2019-03-02T08:01:12.897Z,90.60
2019-03-02T08:03:41.400Z,90.70
2019-03-02T08:06:10.119Z,90.20
2019-03-02T08:08:38.542Z,90.20
2019-03-02T08:11:06.946Z,90.10
2019-03-02T08:13:36.440Z,89.40
2019-03-02T08:16:05.502Z,88.90
2019-03-02T08:18:33.910Z,88.70
2019-03-02T08:21:02.319Z,88.30
2019-03-02T08:23:30.729Z,87.30
2019-03-02T08:25:59.138Z,87.70
2019-03-02T08:28:27.560Z,87.20
2019-03-02T08:30:55.957Z,86.60
2019-03-02T08:33:24.373Z,85.90
2019-03-02T08:35:53.102Z,86.00
2019-03-02T08:38:21.530Z,86.80
2019-03-02T08:40:50.268Z,86.30
2019-03-02T08:43:18.958Z,86.30
2019-03-02T08:45:48.926Z,86.60
2019-03-02T08:48:17.914Z,86.00
2019-03-02T08:50:46.325Z,87.10
2019-03-02T08:53:15.132Z,87.00
2019-03-02T08:55:43.534Z,86.80
2019-03-02T08:58:11.954Z,86.50
2019-03-02T09:00:42.270Z,86.20
2019-03-02T09:03:10.799Z,86.50
2019-03-02T09:05:44.408Z,86.50
2019-03-02T09:08:09.687Z,87.00
2019-03-02T09:10:38.373Z,87.30
2019-03-02T09:13:06.789Z,87.30
2019-03-02T09:15:35.198Z,87.20
2019-03-02T09:18:03.613Z,87.40
2019-03-02T09:20:32.257Z,87.30
2019-03-02T09:23:02.198Z,87.60
2019-03-02T09:25:30.666Z,87.60
2019-03-02T09:27:59.071Z,87.00
2019-03-02T09:30:27.745Z,87.00
2019-03-02T09:32:56.821Z,87.10
2019-03-02T09:35:25.629Z,87.20
2019-03-02T09:37:54.031Z,87.20
2019-03-02T09:40:24.698Z,88.00
2019-03-02T09:42:53.592Z,88.10
2019-03-02T09:45:22.072Z,88.70
2019-03-02T09:47:52.020Z,88.80
2019-03-02T09:50:24.324Z,89.30
2019-03-02T09:52:52.717Z,89.60
2019-03-02T09:55:21.310Z,89.40
2019-03-02T09:57:50.443Z,88.90
2019-03-02T10:00:25.802Z,88.30
2019-03-02T10:02:54.310Z,87.90
2019-03-02T10:05:23.050Z,87.30
2019-03-02T10:07:51.453Z,88.10
2019-03-02T10:10:25.199Z,87.00
2019-03-02T10:12:53.260Z,87.10
2019-03-02T10:15:30.651Z,86.20
2019-03-02T10:18:00.524Z,85.80
2019-03-02T10:20:28.949Z,85.70
2019-03-02T10:22:57.358Z,85.60
2019-03-02T10:25:31.069Z,85.90
2019-03-02T10:27:57.383Z,84.40
2019-03-02T10:30:27.432Z,83.90
2019-03-02T10:32:57.335Z,84.30
2019-03-02T10:35:26.620Z,83.20
2019-03-02T10:37:55.032Z,82.30
2019-03-02T10:40:23.616Z,81.00
2019-03-02T10:42:52.143Z,80.00
2019-03-02T10:45:22.337Z,80.20
2019-03-02T10:47:51.064Z,81.50
2019-03-02T10:50:23.397Z,81.60
2019-03-02T10:52:52.697Z,81.00
2019-03-02T10:55:22.557Z,81.00
2019-03-02T10:57:51.033Z,80.90
2019-03-02T11:00:31.005Z,81.10
2019-03-02T11:03:08.642Z,81.90
2019-03-02T11:05:56.796Z,82.00
2019-03-02T11:08:26.682Z,82.00
2019-03-02T11:11:11.905Z,81.10
2019-03-02T11:13:45.753Z,80.30
2019-03-02T11:16:18.725Z,80.50
2019-03-02T11:18:54.658Z,80.90
2019-03-02T11:21:24.714Z,80.10
2019-03-02T11:24:03.757Z,80.00
2019-03-02T11:26:34.238Z,78.50
2019-03-02T11:29:04.338Z,78.70
2019-03-02T11:31:34.388Z,79.30
2019-03-02T11:34:04.875Z,78.60
2019-03-02T11:36:37.990Z,78.50
2019-03-02T11:39:22.109Z,78.30
2019-03-02T11:41:57.809Z,77.40
2019-03-02T11:44:27.898Z,78.40
2019-03-02T11:46:58.007Z,78.30
2019-03-02T11:49:39.822Z,76.70
2019-03-02T11:52:27.175Z,77.90
2019-03-02T11:55:00.857Z,77.80
2019-03-02T11:57:49.686Z,78.20
2019-03-02T12:00:21.471Z,77.80
2019-03-02T12:02:51.630Z,78.80
2019-03-02T12:05:40.354Z,79.20
2019-03-02T12:08:17.972Z,78.80
2019-03-02T12:10:49.151Z,78.70
2019-03-02T12:13:35.667Z,78.40
2019-03-02T12:16:22.064Z,76.90
2019-03-02T12:19:08.876Z,77.20
2019-03-02T12:21:39.022Z,77.70
2019-03-02T12:24:14.944Z,77.90
2019-03-02T12:26:52.312Z,77.80
2019-03-02T12:29:38.658Z,78.00
2019-03-02T12:32:08.879Z,78.80
2019-03-02T12:34:41.928Z,77.90
2019-03-02T12:37:32.308Z,77.00
2019-03-02T12:40:08.722Z,77.10
2019-03-02T12:42:44.957Z,78.00
2019-03-02T12:45:15.566Z,77.70
2019-03-02T12:47:45.665Z,77.80
2019-03-02T12:50:33.226Z,78.80
2019-03-02T12:53:09.286Z,77.40
2019-03-02T12:55:45.659Z,77.70
2019-03-02T12:58:20.021Z,77.20
2019-03-02T13:01:05.732Z,77.00
2019-03-02T13:03:35.813Z,78.20
2019-03-02T13:06:05.973Z,76.60
2019-03-02T13:08:42.259Z,77.20
2019-03-02T13:11:29.781Z,76.20
2019-03-02T13:14:04.589Z,76.80
2019-03-02T13:16:50.586Z,75.80
2019-03-02T13:19:26.812Z,72.70
2019-03-02T13:22:10.355Z,73.00
2019-03-02T13:24:53.810Z,72.90
2019-03-02T13:27:25.050Z,72.00
2019-03-02T13:29:55.386Z,72.10
2019-03-02T13:32:41.796Z,71.70
2019-03-02T13:35:11.883Z,73.00
2019-03-02T13:37:59.981Z,73.20
2019-03-02T13:40:33.562Z,72.90
2019-03-02T13:43:04.715Z,71.20
2019-03-02T13:45:37.546Z,71.00
2019-03-02T13:48:07.970Z,71.30
2019-03-02T13:50:38.066Z,71.40
2019-03-02T13:53:08.458Z,72.20
2019-03-02T13:55:38.542Z,71.60
2019-03-02T13:58:08.643Z,73.00
2019-03-02T14:00:40.718Z,72.50
2019-03-02T14:03:10.780Z,72.50
2019-03-02T14:05:42.968Z,73.40
2019-03-02T14:08:19.173Z,73.90
2019-03-02T14:11:01.446Z,73.50
2019-03-02T14:13:41.922Z,73.70
2019-03-02T14:16:24.650Z,73.00
2019-03-02T14:19:11.137Z,73.20
2019-03-02T14:21:41.216Z,73.60
2019-03-02T14:24:17.026Z,72.60
2019-03-02T14:26:47.430Z,73.10
2019-03-02T14:29:20.259Z,73.00
2019-03-02T14:32:06.365Z,73.40
2019-03-02T14:34:52.650Z,73.80
2019-03-02T14:37:34.805Z,73.90
2019-03-02T14:40:19.094Z,73.20
2019-03-02T14:42:55.333Z,73.00
2019-03-02T14:45:31.618Z,72.90
2019-03-02T14:48:13.704Z,73.60
2019-03-02T14:50:48.158Z,72.60
2019-03-02T14:53:18.532Z,72.50
2019-03-02T14:55:58.175Z,71.00
2019-03-02T14:58:44.734Z,69.70
2019-03-02T15:01:14.827Z,68.70
2019-03-02T15:03:47.581Z,67.60
2019-03-02T15:06:32.678Z,65.00
2019-03-02T15:09:18.062Z,66.90
2019-03-02T15:11:59.802Z,67.20
2019-03-02T15:14:32.306Z,69.20
2019-03-02T15:17:09.092Z,71.00
2019-03-02T15:19:55.947Z,71.70
2019-03-02T15:22:20.459Z,72.40
2019-03-02T15:25:01.210Z,72.60
2019-03-02T15:27:47.522Z,72.00
2019-03-02T15:30:26.731Z,71.70
2019-03-02T15:33:01.293Z,73.10
2019-03-02T15:35:33.659Z,73.60
2019-03-02T15:38:12.093Z,73.10
2019-03-02T15:40:43.795Z,73.10
2019-03-02T15:43:14.332Z,73.50
2019-03-02T15:45:59.954Z,73.90
2019-03-02T15:48:48.044Z,75.20
2019-03-02T15:51:34.597Z,75.20
2019-03-02T15:54:07.386Z,74.50
2019-03-02T15:56:46.448Z,74.50
2019-03-02T15:59:22.504Z,74.80
2019-03-02T16:02:05.676Z,74.60
2019-03-02T16:04:39.111Z,74.10
2019-03-02T16:07:09.874Z,74.50
2019-03-02T16:09:55.149Z,73.80
2019-03-02T16:12:40.965Z,74.30
2019-03-02T16:15:27.783Z,73.90
2019-03-02T16:18:04.022Z,74.50
2019-03-02T16:20:39.049Z,74.20
2019-03-02T16:23:11.257Z,74.40
2019-03-02T16:25:43.979Z,74.40
2019-03-02T16:28:16.871Z,74.10
2019-03-02T16:30:53.221Z,74.50
2019-03-02T16:33:41.749Z,74.40
2019-03-02T16:36:17.565Z,75.00
2019-03-02T16:39:06.809Z,75.70
2019-03-02T16:41:50.954Z,75.70
2019-03-02T16:44:36.046Z,76.00
2019-03-02T16:47:17.519Z,75.90
2019-03-02T16:49:47.866Z,76.20
2019-03-02T16:52:20.815Z,76.70
2019-03-02T16:54:57.606Z,76.80
2019-03-02T16:57:44.274Z,76.60
2019-03-02T17:00:20.285Z,77.10
2019-03-02T17:02:56.894Z,77.30
2019-03-02T17:05:42.884Z,77.80
2019-03-02T17:08:31.184Z,78.10
2019-03-02T17:11:16.261Z,78.50
2019-03-02T17:13:46.394Z,78.50
2019-03-02T17:16:16.486Z,78.70
2019-03-02T17:19:02.238Z,78.50
2019-03-02T17:21:41.154Z,79.10
2019-03-02T17:24:11.418Z,78.60
2019-03-02T17:26:42.119Z,78.80
2019-03-02T17:29:13.623Z,78.90
2019-03-02T17:31:49.485Z,78.60
2019-03-02T17:34:37.822Z,78.20
2019-03-02T17:37:24.451Z,78.40
2019-03-02T17:40:09.757Z,78.20
2019-03-02T17:42:58.046Z,78.00
2019-03-02T17:45:39.713Z,77.90
2019-03-02T17:48:09.805Z,77.80
2019-03-02T17:50:58.635Z,77.90
2019-03-02T17:53:28.543Z,78.00
2019-03-02T17:56:15.082Z,78.20
2019-03-02T17:58:47.871Z,78.40
2019-03-02T18:01:23.803Z,78.70
2019-03-02T18:03:59.472Z,78.70
2019-03-02T18:06:32.092Z,78.80
2019-03-02T18:09:05.286Z,78.90
2019-03-02T18:11:46.482Z,79.20
2019-03-02T18:14:21.953Z,78.90
2019-03-02T18:16:54.958Z,79.30
2019-03-02T18:19:23.474Z,79.40
2019-03-02T18:21:51.916Z,79.50
2019-03-02T18:24:20.407Z,79.20
2019-03-02T18:26:49.237Z,79.40
2019-03-02T18:29:17.716Z,79.30
2019-03-02T18:31:46.146Z,79.50
2019-03-02T18:34:16.218Z,79.70
2019-03-02T18:36:45.959Z,79.90
2019-03-02T18:39:14.787Z,79.90
2019-03-02T18:41:46.231Z,80.20
2019-03-02T18:44:17.861Z,80.30
2019-03-02T18:46:44.891Z,81.30
2019-03-02T18:49:15.290Z,81.60
2019-03-02T18:52:04.034Z,83.00
2019-03-02T18:54:32.508Z,83.50
2019-03-02T18:57:00.947Z,84.20
2019-03-02T18:59:29.694Z,84.60
2019-03-02T19:01:58.470Z,84.80
2019-03-02T19:04:28.858Z,85.00
2019-03-02T19:06:59.241Z,85.30
2019-03-02T19:09:32.158Z,85.40
2019-03-02T19:11:58.137Z,85.60
2019-03-02T19:14:26.566Z,85.70
2019-03-02T19:16:55.002Z,85.80
2019-03-02T19:19:23.454Z,85.90
2019-03-02T19:21:51.873Z,86.40
2019-03-02T19:24:20.326Z,86.60
2019-03-02T19:26:49.109Z,86.70
2019-03-02T19:29:17.643Z,86.90
2019-03-02T19:31:46.370Z,87.20
2019-03-02T19:34:14.827Z,87.40
2019-03-02T19:36:43.534Z,87.70
2019-03-02T19:39:14.891Z,87.70
2019-03-02T19:41:43.314Z,88.10
2019-03-02T19:44:11.785Z,88.10
2019-03-02T19:46:40.193Z,88.50
2019-03-02T19:49:09.002Z,89.10
2019-03-02T19:51:37.786Z,88.90
2019-03-02T19:54:06.231Z,89.20
2019-03-02T19:56:34.658Z,89.40
2019-03-02T19:59:03.482Z,89.30
2019-03-02T20:01:32.217Z,89.40
2019-03-02T20:04:11.045Z,89.60
2019-03-02T20:06:39.505Z,89.70
2019-03-02T20:09:08.022Z,89.70
2019-03-02T20:11:36.486Z,89.70
2019-03-02T20:14:05.405Z,89.60
2019-03-02T20:16:34.178Z,89.70
2019-03-02T20:19:02.946Z,89.40
2019-03-02T20:21:32.486Z,89.30
2019-03-02T20:24:01.234Z,89.20
2019-03-02T20:26:30.030Z,89.10
2019-03-02T20:28:58.463Z,88.90
2019-03-02T20:31:27.191Z,89.10
2019-03-02T20:33:55.635Z,89.20
2019-03-02T20:36:24.080Z,89.10
2019-03-02T20:38:52.536Z,89.30
2019-03-02T20:41:21.152Z,89.20
2019-03-02T20:43:49.585Z,89.20
2019-03-02T20:46:18.532Z,89.20
2019-03-02T20:48:47.413Z,89.40
2019-03-02T20:51:15.894Z,89.60
2019-03-02T20:53:44.301Z,89.80
2019-03-02T20:56:12.738Z,89.90
2019-03-02T20:58:41.182Z,90.10
2019-03-02T21:01:09.611Z,90.20
2019-03-02T21:03:38.063Z,90.40
2019-03-02T21:06:07.042Z,90.60
2019-03-02T21:08:35.470Z,90.60
2019-03-02T21:11:03.985Z,90.60
2019-03-02T21:13:32.790Z,90.50
2019-03-02T21:16:01.408Z,90.50
2019-03-02T21:18:29.868Z,90.30
2019-03-02T21:20:58.779Z,90.20
2019-03-02T21:23:27.195Z,90.10
2019-03-02T21:25:55.630Z,89.70
2019-03-02T21:28:24.072Z,89.20
2019-03-02T21:30:52.845Z,88.90
2019-03-02T21:33:21.643Z,88.70
2019-03-02T21:35:50.439Z,88.50
2019-03-02T21:38:18.870Z,88.30
2019-03-02T21:40:47.306Z,88.10
2019-03-02T21:43:15.753Z,88.10
2019-03-02T21:45:44.566Z,88.00
2019-03-02T21:48:13.425Z,88.00
2019-03-02T21:50:44.888Z,87.90
2019-03-02T21:53:13.313Z,87.70
2019-03-02T21:55:41.749Z,87.70
2019-03-02T21:58:10.165Z,87.70
2019-03-02T22:00:38.617Z,87.30
2019-03-02T22:03:07.166Z,87.40
2019-03-02T22:05:35.688Z,87.30
2019-03-02T22:08:04.605Z,87.10
2019-03-02T22:10:54.433Z,87.20
2019-03-02T22:13:22.855Z,87.30
2019-03-02T22:15:51.303Z,87.20
2019-03-02T22:18:19.734Z,87.30
2019-03-02T22:20:48.450Z,87.30
2019-03-02T22:23:17.242Z,87.40
2019-03-02T22:25:46.150Z,87.20
2019-03-02T22:28:14.931Z,87.10
2019-03-02T22:30:43.358Z,87.10
2019-03-02T22:33:11.786Z,87.00
2019-03-02T22:35:40.234Z,87.10
2019-03-02T22:38:08.679Z,87.00
2019-03-02T22:40:37.431Z,87.20
2019-03-02T22:43:05.864Z,87.00
2019-03-02T22:45:34.322Z,86.90
2019-03-02T22:48:02.766Z,86.90
2019-03-02T22:50:35.317Z,86.90
2019-03-02T22:53:03.728Z,86.90
2019-03-02T22:55:32.183Z,86.60
2019-03-02T22:58:01.799Z,86.50
2019-03-02T23:00:51.578Z,86.40
2019-03-02T23:03:19.237Z,86.00
2019-03-02T23:05:48.141Z,85.10
2019-03-02T23:08:16.583Z,84.60
2019-03-02T23:10:44.998Z,84.50
2019-03-02T23:13:13.768Z,84.20
2019-03-02T23:15:42.195Z,83.20
2019-03-02T23:18:10.634Z,82.80
2019-03-02T23:20:39.065Z,82.50
2019-03-02T23:23:07.507Z,82.30
2019-03-02T23:25:35.954Z,82.30
2019-03-02T23:28:04.406Z,82.50
2019-03-02T23:30:32.865Z,82.30
2019-03-02T23:33:01.597Z,82.50
2019-03-02T23:35:30.122Z,82.50
2019-03-02T23:37:58.590Z,82.70
2019-03-02T23:40:27.055Z,82.50
2019-03-02T23:42:55.834Z,82.50
2019-03-02T23:45:24.253Z,82.70
2019-03-02T23:47:52.998Z,82.50
2019-03-02T23:50:21.878Z,82.30
2019-03-02T23:52:50.335Z,82.30
2019-03-02T23:55:19.046Z,82.20
2019-03-02T23:57:47.845Z,81.70
